Latest Weather Observations for Barrow Island

IDW60801

Issued at 9:33 pm WST Monday 25 July 2016 (issued every 30 minutes, with the page automatically refreshed every 10 minutes)

About weather observations | Map of weather stations | Latest weather observations for WA | Other Formats
Station Details ID: 005094 Name: BARROW ISLAND AIRPORT Lat: -20.87 Lon: 115.41 Height: 6.4 m
Data from the previous 72 hours. | See also: Recent months at Barrow Island
Date/Time
WST
Temp
°C
App
Temp
°C
Dew
Point
°C
Rel
Hum
%
Delta-T
°C
Wind Press
QNH
hPa
Press
MSL
hPa
Rain since
9am
mm
Dir  Spd
km/h
Gust
km/h
Spd
kts
Gust
kts
25/09:30pm 21.1 22.1 18.7 86 1.5 SSW 11 11 6 6 1018.3 - 0.0
25/09:00pm 21.3 22.3 18.7 85 1.6 SSW 11 11 6 6 1018.4 1018.4 0.0
25/08:30pm 21.2 22.3 18.0 82 2.0 SW 9 11 5 6 1018.2 - 0.0
25/08:00pm 21.6 22.2 17.8 79 2.4 SSW 11 13 6 7 1017.9 - 0.0
25/07:30pm 21.4 21.7 16.1 72 3.2 W 9 11 5 6 1017.7 - 0.0
25/07:00pm 21.6 21.5 16.1 71 3.3 W 11 11 6 6 1017.5 - 0.0
25/06:30pm 22.1 23.0 16.1 69 3.6 WSW 6 7 3 4 1017.1 - 0.0
25/06:00pm 22.6 23.9 16.2 67 3.9 NNE 4 7 2 4 1016.9 1016.9 0.0
25/05:30pm 23.0 23.7 16.1 65 4.2 NNE 7 9 4 5 1016.4 - 0.0
25/05:00pm 22.5 23.0 16.5 69 3.7 ENE 9 11 5 6 1016.1 - 0.0
25/04:30pm 22.6 22.3 16.4 68 3.8 NE 13 13 7 7 1016.0 - 0.0
25/04:00pm 22.5 21.8 16.3 68 3.8 ENE 15 17 8 9 1015.8 - 0.0
25/03:30pm 22.9 22.6 16.4 67 4.0 ENE 13 15 7 8 1015.9 - 0.0
25/03:00pm 23.1 22.7 16.2 65 4.2 ENE 13 15 7 8 1016.2 1016.2 0.0
25/02:30pm 22.9 22.4 16.0 65 4.2 NE 13 15 7 8 1016.4 - 0.0
25/02:00pm 23.0 22.0 16.5 67 4.0 ENE 17 17 9 9 1016.6 - 0.0
25/01:30pm 22.9 23.2 18.0 74 3.1 ENE 13 15 7 8 1016.8 - 0.0
25/01:00pm 22.9 23.2 17.8 73 3.2 E 13 15 7 8 1017.2 - 0.0
25/12:30pm 23.4 22.7 17.4 69 3.7 E 17 19 9 10 1017.6 - 0.0
25/12:00pm 23.0 22.6 17.2 70 3.6 ESE 15 17 8 9 1018.2 1018.2 0.0
25/11:30am 23.2 22.9 17.4 70 3.6 E 15 19 8 10 1018.7 - 0.0
25/11:00am 22.9 23.4 18.4 76 2.8 ESE 13 17 7 9 1019.0 - 0.0
25/10:30am 22.5 22.5 18.1 76 2.7 ESE 15 17 8 9 1019.2 - 0.0
25/10:00am 22.6 23.4 18.2 76 2.8 ESE 11 13 6 7 1019.4 - 0.0
25/09:30am 21.9 22.8 18.3 80 2.2 ESE 11 13 6 7 1019.2 - 0.0
25/09:00am 22.2 22.0 18.4 79 2.4 SE 17 20 9 11 1019.0 1019.0 0.0
25/08:30am 21.2 19.4 17.8 81 2.1 ESE 24 28 13 15 1018.5 - 0.0
25/08:00am 21.0 21.3 18.0 83 1.9 ESE 13 17 7 9 1018.6 - 0.0
25/07:30am 20.2 20.8 17.6 85 1.6 SE 11 15 6 8 1018.3 - 0.0
25/07:00am 20.0 20.5 17.4 85 1.6 SE 11 15 6 8 1018.0 - 0.0
25/06:30am 19.8 20.6 17.2 85 1.6 SSE 9 9 5 5 1017.9 - 0.0
25/06:00am 19.9 21.2 17.1 84 1.7 S 6 9 3 5 1017.8 1017.8 0.0
25/05:30am 20.0 20.5 17.4 85 1.6 S 11 15 6 8 1017.6 - 0.0
25/05:00am 20.2 19.9 17.4 84 1.7 S 15 19 8 10 1017.5 - 0.0
25/04:30am 20.3 20.5 17.7 85 1.6 SSW 13 17 7 9 1017.4 - 0.0
25/04:00am 20.6 21.9 17.6 83 1.8 ENE 7 9 4 5 1016.8 - 0.0
25/03:30am 20.0 21.2 17.4 85 1.6 E 7 11 4 6 1016.6 - 0.0
25/03:00am 20.6 20.8 17.6 83 1.8 E 13 15 7 8 1016.8 1016.8 0.0
25/02:30am 20.6 19.9 17.4 82 2.0 ESE 17 20 9 11 1016.7 - 0.0
25/02:00am 20.5 19.7 17.1 81 2.1 E 17 19 9 10 1016.9 - 0.0
25/01:30am 20.6 19.8 17.2 81 2.1 E 17 17 9 9 1017.3 - 0.0
25/01:00am 20.6 20.2 17.2 81 2.1 E 15 17 8 9 1017.7 - 0.0
25/12:30am 20.6 19.0 17.4 82 2.0 ESE 22 24 12 13 1017.6 - 0.0
25/12:00am 20.6 19.1 17.6 83 1.8 SE 22 26 12 14 1017.9 1017.9 0.0
 
Date/Time
WST
Temp
°C
App
Temp
°C
Dew
Point
°C
Rel
Hum
%
Delta-T
°C
Wind Press
QNH
hPa
Press
MSL
hPa
Rain since
9am
mm
Dir  Spd
km/h
Gust
km/h
Spd
kts
Gust
kts
24/11:30pm 20.7 19.6 17.7 83 1.8 ESE 20 24 11 13 1018.0 - 0.0
24/11:00pm 20.6 19.1 17.8 84 1.7 ESE 22 26 12 14 1018.0 - 0.0
24/10:30pm 20.5 18.7 17.9 85 1.6 SE 24 28 13 15 1018.1 - 0.0
24/10:00pm 20.4 18.3 18.0 86 1.5 SE 26 32 14 17 1018.2 - 0.0
24/09:30pm 20.4 17.5 18.0 86 1.5 SE 30 35 16 19 1018.1 - 0.0
24/09:00pm 20.5 17.7 18.1 86 1.5 SE 30 35 16 19 1018.1 1018.1 0.0
24/08:30pm 20.5 18.8 18.1 86 1.5 SE 24 28 13 15 1018.5 - 0.0
24/08:00pm 20.5 18.0 18.1 86 1.5 SSE 28 33 15 18 1018.0 - 0.0
24/07:30pm 20.6 17.9 18.5 88 1.3 SSE 30 33 16 18 1017.6 - 0.0
24/07:00pm 20.6 18.3 18.4 87 1.4 SSE 28 33 15 18 1017.6 - 0.0
24/06:30pm 20.6 18.6 18.2 86 1.5 S 26 30 14 16 1017.3 - 0.0
24/06:00pm 20.7 18.6 18.1 85 1.6 S 26 30 14 16 1017.0 1017.0 0.0
24/05:30pm 20.8 20.8 18.0 84 1.7 SSW 15 17 8 9 1017.0 - 0.0
24/05:00pm 21.0 21.6 17.6 81 2.1 SSW 11 13 6 7 1016.8 - 0.0
24/04:30pm 21.0 21.1 17.4 80 2.2 SW 13 15 7 8 1016.7 - 0.0
24/04:00pm 21.0 21.4 17.2 79 2.3 S 11 13 6 7 1016.3 - 0.0
24/03:30pm 21.1 21.5 17.3 79 2.3 SSW 11 13 6 7 1016.3 - 0.0
24/03:00pm 21.3 21.4 17.5 79 2.3 S 13 15 7 8 1016.3 1016.3 0.0
24/02:30pm 21.4 21.3 17.0 76 2.7 S 13 13 7 7 1016.3 - 0.0
24/02:00pm 21.4 21.7 17.0 76 2.7 S 11 15 6 8 1016.4 - 0.0
24/01:30pm 21.5 21.3 16.7 74 2.9 SSE 13 15 7 8 1016.4 - 0.0
24/01:00pm 21.6 21.1 17.0 75 2.8 SE 15 17 8 9 1016.6 - 0.0
24/12:30pm 21.6 20.8 17.0 75 2.8 SE 17 20 9 11 1016.9 - 0.0
24/12:00pm 21.4 21.3 17.0 76 2.7 ESE 13 19 7 10 1017.7 1017.7 0.0
24/11:30am 21.3 21.2 16.9 76 2.7 ESE 13 17 7 9 1018.0 - 0.0
24/11:00am 21.2 20.4 17.2 78 2.4 SE 17 19 9 10 1017.9 - 0.0
24/10:30am 21.1 19.9 17.1 78 2.4 SSE 19 20 10 11 1017.9 - 0.0
24/10:00am 21.0 19.9 17.4 80 2.2 ESE 19 20 10 11 1018.0 - 0.0
24/09:30am 20.6 19.4 17.4 82 2.0 ESE 20 24 11 13 1017.9 - 0.0
24/09:00am 20.3 18.2 17.1 82 1.9 SE 24 28 13 15 1017.6 1017.6 0.0
24/08:30am 19.7 18.4 16.7 83 1.8 SSE 19 22 10 12 1017.7 - 0.0
24/08:00am 19.7 19.1 16.7 83 1.8 SSE 15 20 8 11 1017.5 - 0.0
24/07:30am 19.9 19.7 16.7 82 1.9 SE 13 17 7 9 1017.2 - 0.0
24/07:00am 19.8 16.7 16.6 82 1.9 SE 28 32 15 17 1016.1 - 0.0
24/06:30am 19.8 16.7 16.6 82 1.9 SSE 28 32 15 17 1015.8 - 0.0
24/06:00am 20.3 19.7 16.7 80 2.2 SE 15 19 8 10 1016.1 1016.1 0.0
24/05:30am 20.3 18.3 16.5 79 2.3 SE 22 28 12 15 1015.7 - 0.0
24/05:00am 20.1 17.4 16.7 81 2.1 SSE 26 32 14 17 1015.3 - 0.0
24/04:30am 20.2 17.6 16.8 81 2.1 SSE 26 32 14 17 1015.4 - 0.0
24/04:00am 20.5 16.8 16.9 80 2.2 SSE 32 37 17 20 1015.0 - 0.0
24/03:30am 20.4 17.6 16.4 78 2.4 SE 26 32 14 17 1015.5 - 0.0
24/03:00am 20.0 16.1 16.4 80 2.2 SSE 32 35 17 19 1015.7 1015.7 0.0
24/02:30am 19.6 16.9 16.6 83 1.8 SSE 26 35 14 19 1016.0 - 0.0
24/02:00am 19.2 17.3 16.6 85 1.6 SSE 22 26 12 14 1016.4 - 0.0
24/01:30am 19.5 15.4 16.5 83 1.8 S 33 39 18 21 1016.7 - 0.0
24/01:00am 19.5 15.9 16.3 82 1.9 S 30 35 16 19 1016.9 - 0.0
24/12:30am 19.8 16.0 16.6 82 1.9 S 32 35 17 19 1016.7 - 0.0
24/12:00am 20.2 16.7 16.6 80 2.2 S 30 35 16 19 1016.5 1016.5 0.0
 
Date/Time
WST
Temp
°C
App
Temp
°C
Dew
Point
°C
Rel
Hum
%
Delta-T
°C
Wind Press
QNH
hPa
Press
MSL
hPa
Rain since
9am
mm
Dir  Spd
km/h
Gust
km/h
Spd
kts
Gust
kts
23/11:30pm 20.3 16.8 16.5 79 2.3 S 30 33 16 18 1016.8 - 0.0
23/11:00pm 20.4 17.6 16.4 78 2.4 S 26 32 14 17 1016.7 - 0.0
23/10:30pm 20.7 18.0 16.5 77 2.5 S 26 30 14 16 1016.4 - 0.0
23/10:00pm 20.6 17.1 16.4 77 2.5 S 30 35 16 19 1016.4 - 0.0
23/09:30pm 20.3 16.6 16.1 77 2.5 S 30 35 16 19 1016.4 - 0.0
23/09:00pm 20.4 16.2 16.2 77 2.5 SSE 33 39 18 21 1016.5 1016.5 0.0
23/08:30pm 20.4 16.7 16.0 76 2.6 SSE 30 37 16 20 1016.4 - 0.0
23/08:00pm 20.5 16.5 16.3 77 2.5 SSE 32 39 17 21 1016.2 - 0.0
23/07:30pm 20.6 16.7 16.4 77 2.5 SSE 32 39 17 21 1015.9 - 0.0
23/07:00pm 20.5 16.5 16.1 76 2.6 SSE 32 35 17 19 1015.7 - 0.0
23/06:30pm 20.6 16.7 16.4 77 2.5 SSE 32 37 17 20 1015.8 - 0.0
23/06:00pm 20.7 15.8 16.3 76 2.6 S 37 43 20 23 1015.6 1015.6 0.0
23/05:30pm 21.0 17.0 16.6 76 2.7 S 33 39 18 21 1015.5 - 0.0
23/05:00pm 21.0 18.8 17.0 78 2.4 SSW 24 30 13 16 1015.5 - 0.0
23/04:30pm 21.3 20.0 17.3 78 2.5 S 20 24 11 13 1015.4 - 0.0
23/04:00pm 21.3 19.1 16.9 76 2.7 S 24 28 13 15 1015.2 - 0.0
23/03:30pm 21.7 19.5 16.9 74 2.9 S 24 30 13 16 1015.1 - 0.0
23/03:00pm 21.1 18.7 17.3 79 2.3 S 26 33 14 18 1015.2 1015.2 0.0
23/02:30pm 21.4 20.6 17.2 77 2.6 SE 17 22 9 12 1015.1 - 0.0
23/02:00pm 22.3 21.5 17.2 73 3.1 SE 17 24 9 13 1015.4 - 0.0
23/01:30pm 23.1 23.7 17.6 71 3.4 SE 11 19 6 10 1015.9 - 0.0
23/01:00pm 22.4 23.5 18.0 76 2.7 ENE 9 11 5 6 1016.1 - 0.0
23/12:30pm 22.4 24.1 18.4 78 2.5 E 7 9 4 5 1016.7 - 0.0
23/12:00pm 21.3 22.8 17.5 79 2.3 SSW 6 13 3 7 1017.4 1017.4 0.0
23/11:30am 21.7 23.1 17.3 76 2.7 ESE 6 7 3 4 1017.3 - 0.0
23/11:00am 21.4 21.8 17.2 77 2.6 SSE 11 13 6 7 1017.3 - 0.0
23/10:30am 21.4 22.1 17.0 76 2.7 ESE 9 11 5 6 1017.6 - 0.0
23/10:00am 21.1 21.7 16.7 76 2.7 ESE 9 13 5 7 1017.8 - 0.0
23/09:30am 21.1 21.7 16.9 77 2.6 ESE 9 11 5 6 1017.7 - 0.0
23/09:00am 20.7 20.4 16.5 77 2.5 SE 13 17 7 9 1017.5 1017.5 0.0
23/08:30am 20.4 19.3 16.4 78 2.4 SSE 17 20 9 11 1017.5 - 0.0
23/08:00am 20.5 19.5 16.5 78 2.4 SSE 17 20 9 11 1017.1 - 0.0
23/07:30am 20.4 19.4 16.6 79 2.3 E 17 20 9 11 1016.7 - 0.0
23/07:00am 20.3 19.6 16.5 79 2.3 ESE 15 19 8 10 1016.6 - 0.0
23/06:30am 20.2 19.0 16.2 78 2.4 SE 17 19 9 10 1016.5 - 0.0
23/06:00am 20.2 19.0 16.0 77 2.5 SE 17 20 9 11 1016.4 1016.4 0.0
23/05:30am 20.2 18.4 16.0 77 2.5 SE 20 24 11 13 1015.9 - 0.0
23/05:00am 20.0 17.4 16.0 78 2.4 SSE 24 28 13 15 1015.7 - 0.0
23/04:30am 20.1 18.0 16.1 78 2.4 SSE 22 24 12 13 1015.6 - 0.0
23/04:00am 20.3 18.6 16.3 78 2.4 SSE 20 24 11 13 1015.9 - 0.0
23/03:30am 20.2 18.0 16.0 77 2.5 SSE 22 24 12 13 1015.9 - 0.0
23/03:00am 20.0 17.8 16.0 78 2.4 SSE 22 26 12 14 1016.1 1016.1 0.0
23/02:30am 19.7 17.1 15.8 78 2.3 SSE 24 30 13 16 1016.5 - 0.0
23/02:00am 19.6 16.6 15.9 79 2.2 S 26 30 14 16 1016.8 - 0.0
23/01:30am 19.6 16.8 16.3 81 2.0 S 26 32 14 17 1017.0 - 0.0
23/01:00am 19.6 16.6 15.9 79 2.2 S 26 28 14 15 1017.4 - 0.0
23/12:30am 19.7 17.2 16.2 80 2.1 S 24 30 13 16 1017.6 - 0.0
23/12:00am 19.8 16.8 15.9 78 2.3 S 26 30 14 16 1017.4 1017.4 0.0
 
Date/Time
WST
Temp
°C
App
Temp
°C
Dew
Point
°C
Rel
Hum
%
Delta-T
°C
Wind Press
QNH
hPa
Press
MSL
hPa
Rain since
9am
mm
Dir  Spd
km/h
Gust
km/h
Spd
kts
Gust
kts
22/11:30pm 19.8 17.1 15.7 77 2.4 S 24 30 13 16 1017.6 - 0.0
22/11:00pm 19.6 16.5 15.7 78 2.3 S 26 30 14 16 1017.5 - 0.0
22/10:30pm 19.7 16.7 15.8 78 2.3 SSE 26 28 14 15 1017.4 - 0.0
22/10:00pm 19.8 16.3 15.4 76 2.6 SSE 28 32 15 17 1017.1 - 0.0

Other Formats:

Comma delimited format used in spreadsheet applications
http://www.bom.gov.au/fwo/IDW60801/IDW60801.95304.axf

JavaScript Object Notation format (JSON) in row-major order
http://www.bom.gov.au/fwo/IDW60801/IDW60801.95304.json